Time;durP1;ratioP1;P1;durP2;ratioP2;P2;SDS_P1;SDS_P2;PMS_P1;PMS_P2;Temp;Humidity;BMP_temperature;BMP_pressure;BME280_temperature;BME280_humidity;BME280_pressure;Samples;Min_cycle;Max_cycle;Signal;HPM_P1;HPM_P2
2022/11/01 00:01:40;;;;;;;3.72;2.15;;;;;;;;;;10330123;28;20120;-79
2022/11/01 00:06:45;;;;;;;9.05;2.67;;;;;;;;;;10326433;28;20727;-78
2022/11/01 00:11:48;;;;;;;3.78;2.15;;;;;;;;;;10326615;28;20067;-78
2022/11/01 00:16:51;;;;;;;4.97;1.75;;;;;;;;;;10326187;28;20046;-78
2022/11/01 00:21:56;;;;;;;6.47;2.40;;;;;;;;;;10308906;28;20113;-79
2022/11/01 00:26:59;;;;;;;5.28;1.92;;;;;;;;;;10325345;28;20038;-79
2022/11/01 00:32:03;;;;;;;5.47;2.20;;;;;;;;;;10300519;28;20042;-79
2022/11/01 00:37:07;;;;;;;3.72;2.05;;;;;;;;;;10326479;28;20038;-79
2022/11/01 00:42:11;;;;;;;3.47;1.73;;;;;;;;;;10326513;28;20034;-79
2022/11/01 00:47:14;;;;;;;4.10;2.03;;;;;;;;;;10324966;28;20470;-78
2022/11/01 00:52:18;;;;;;;4.32;1.83;;;;;;;;;;10291917;28;20051;-79
2022/11/01 00:57:22;;;;;;;4.50;1.33;;;;;;;;;;10324962;28;20499;-78
2022/11/01 01:02:25;;;;;;;2.63;1.13;;;;;;;;;;10323334;28;20043;-79
2022/11/01 01:07:30;;;;;;;2.70;1.23;;;;;;;;;;10324130;28;20042;-78
2022/11/01 01:12:33;;;;;;;2.15;1.52;;;;;;;;;;10324473;28;20403;-78
2022/11/01 01:17:37;;;;;;;5.18;2.60;;;;;;;;;;10322742;28;20045;-79
2022/11/01 01:22:42;;;;;;;5.13;3.05;;;;;;;;;;10304887;28;20042;-79
2022/11/01 01:27:45;;;;;;;6.50;2.47;;;;;;;;;;10313259;28;20046;-79
2022/11/01 01:32:48;;;;;;;3.83;2.08;;;;;;;;;;10327706;28;20117;-79
2022/11/01 01:37:53;;;;;;;4.05;1.98;;;;;;;;;;10328813;28;20046;-79
2022/11/01 01:42:56;;;;;;;3.83;2.15;;;;;;;;;;10328751;28;20046;-79
2022/11/01 01:48:12;;;;;;;3.95;2.03;;;;;;;;;;10327724;28;20049;-79
2022/11/01 01:53:18;;;;;;;;;;;;;;;;;;10310347;28;20042;-79
2022/11/01 01:58:26;;;;;;;8.00;3.00;;;;;;;;;;10317937;28;19933;-78
2022/11/01 02:03:32;;;;;;;6.97;2.70;;;;;;;;;;10326762;28;20050;-79
2022/11/01 02:08:38;;;;;;;5.43;2.72;;;;;;;;;;10325906;28;20057;-79
2022/11/01 02:13:41;;;;;;;4.15;2.08;;;;;;;;;;10323843;28;20042;-79
2022/11/01 02:18:48;;;;;;;5.00;2.33;;;;;;;;;;10305193;28;20049;-79
2022/11/01 02:24:16;;;;;;;3.33;2.10;;;;;;;;;;10312263;28;20538;-78
2022/11/01 02:29:44;;;;;;;3.85;1.88;;;;;;;;;;10293359;28;20302;-78
2022/11/01 02:34:54;;;;;;;9.07;2.00;;;;;;;;;;10321976;28;20374;-78
2022/11/01 02:40:02;;;;;;;4.50;2.05;;;;;;;;;;10296787;28;20041;-79
2022/11/01 02:45:08;;;;;;;4.30;2.38;;;;;;;;;;10323141;28;20046;-80
2022/11/01 02:50:13;;;;;;;5.40;2.65;;;;;;;;;;10327325;28;20120;-80
2022/11/01 02:55:28;;;;;;;4.85;2.58;;;;;;;;;;10320262;28;20552;-81
2022/11/01 03:00:34;;;;;;;3.00;1.77;;;;;;;;;;10335964;28;20109;-81
2022/11/01 03:05:45;;;;;;;6.05;2.05;;;;;;;;;;10322856;28;20121;-80
2022/11/01 03:10:55;;;;;;;1.95;1.33;;;;;;;;;;10329487;28;20281;-80
2022/11/01 03:16:13;;;;;;;3.00;1.42;;;;;;;;;;10314394;28;20038;-79
2022/11/01 03:21:23;;;;;;;2.78;1.85;;;;;;;;;;10323035;28;20053;-80
2022/11/01 03:26:30;;;;;;;4.28;1.67;;;;;;;;;;10328473;28;20070;-77
2022/11/01 03:31:38;;;;;;;2.60;1.65;;;;;;;;;;10327328;28;20137;-80
2022/11/01 03:36:49;;;;;;;1.45;1.08;;;;;;;;;;10328103;28;20045;-80
2022/11/01 03:41:58;;;;;;;2.88;1.10;;;;;;;;;;10302973;28;20561;-81
2022/11/01 03:47:02;;;;;;;1.83;1.08;;;;;;;;;;10327652;28;20049;-80
2022/11/01 03:52:07;;;;;;;1.40;0.60;;;;;;;;;;10329642;28;20046;-80
2022/11/01 03:57:10;;;;;;;2.55;1.33;;;;;;;;;;10313115;28;20042;-79
2022/11/01 04:02:13;;;;;;;1.88;1.17;;;;;;;;;;10311903;28;20364;-80
2022/11/01 04:07:18;;;;;;;2.58;1.05;;;;;;;;;;10304094;28;20545;-80
2022/11/01 04:12:22;;;;;;;1.48;0.90;;;;;;;;;;10298162;28;20049;-80
2022/11/01 04:22:48;;;;;;;1.63;0.80;;;;;;;;;;10306691;28;20537;-80
2022/11/01 04:27:51;;;;;;;3.13;1.38;;;;;;;;;;10312584;28;20674;-79
2022/11/01 04:32:55;;;;;;;1.90;1.10;;;;;;;;;;10296199;28;20076;-80
2022/11/01 04:38:00;;;;;;;2.58;0.98;;;;;;;;;;10305254;28;20511;-79
2022/11/01 04:43:04;;;;;;;4.35;0.95;;;;;;;;;;10312936;28;20046;-79
2022/11/01 04:48:12;;;;;;;2.20;1.23;;;;;;;;;;10327987;28;20046;-80
2022/11/01 04:53:17;;;;;;;3.13;1.33;;;;;;;;;;10327770;28;20042;-79
2022/11/01 04:58:20;;;;;;;2.08;1.17;;;;;;;;;;10331823;28;20046;-81
2022/11/01 05:03:23;;;;;;;2.58;1.60;;;;;;;;;;10341375;28;20121;-80
2022/11/01 05:08:28;;;;;;;2.75;1.10;;;;;;;;;;10338408;28;20038;-79
2022/11/01 05:13:31;;;;;;;2.47;1.40;;;;;;;;;;10330106;28;20056;-78
2022/11/01 05:18:39;;;;;;;2.53;1.70;;;;;;;;;;10310949;28;20125;-79
2022/11/01 05:23:44;;;;;;;3.20;1.23;;;;;;;;;;10305554;28;20069;-79
2022/11/01 05:28:47;;;;;;;1.58;1.27;;;;;;;;;;10312477;28;20053;-79
2022/11/01 05:33:51;;;;;;;5.38;1.13;;;;;;;;;;10332366;28;20074;-79
2022/11/01 05:38:57;;;;;;;3.05;1.30;;;;;;;;;;10294026;28;20054;-80
2022/11/01 05:44:01;;;;;;;2.53;1.50;;;;;;;;;;10330956;28;20660;-79
2022/11/01 05:49:04;;;;;;;1.77;1.30;;;;;;;;;;10313725;28;20045;-79
2022/11/01 05:54:09;;;;;;;3.28;1.38;;;;;;;;;;10294348;28;20050;-81
2022/11/01 05:59:12;;;;;;;2.13;1.02;;;;;;;;;;10309844;28;20138;-80
2022/11/01 06:04:16;;;;;;;2.97;1.40;;;;;;;;;;10301425;28;20051;-80
2022/11/01 06:09:20;;;;;;;2.70;1.20;;;;;;;;;;10312220;28;20047;-80
2022/11/01 06:14:24;;;;;;;2.13;1.58;;;;;;;;;;10314598;28;20042;-79
2022/11/01 06:19:27;;;;;;;2.45;1.42;;;;;;;;;;10304163;28;20046;-80
2022/11/01 06:24:32;;;;;;;2.53;1.20;;;;;;;;;;10295155;28;20049;-78
2022/11/01 06:29:35;;;;;;;2.45;1.10;;;;;;;;;;10322376;28;20913;-79
2022/11/01 06:34:39;;;;;;;1.55;1.00;;;;;;;;;;10307904;28;20046;-79
2022/11/01 06:39:44;;;;;;;2.67;1.40;;;;;;;;;;10325192;28;20541;-79
2022/11/01 06:44:47;;;;;;;2.08;0.90;;;;;;;;;;10330300;28;20125;-79
2022/11/01 06:49:51;;;;;;;2.65;1.20;;;;;;;;;;10339129;28;20684;-79
2022/11/01 06:54:58;;;;;;;3.72;1.20;;;;;;;;;;10300520;28;20094;-79
2022/11/01 07:00:02;;;;;;;4.28;1.95;;;;;;;;;;10317940;28;20061;-79
2022/11/01 07:05:06;;;;;;;1.77;1.33;;;;;;;;;;10310657;28;20069;-80
2022/11/01 07:10:11;;;;;;;1.85;1.20;;;;;;;;;;10327670;28;20150;-79
2022/11/01 07:15:14;;;;;;;2.13;1.27;;;;;;;;;;10315010;28;20529;-80
2022/11/01 07:20:17;;;;;;;1.73;1.20;;;;;;;;;;10298460;28;20039;-79
2022/11/01 07:25:22;;;;;;;1.48;1.30;;;;;;;;;;10298535;28;20046;-81
2022/11/01 07:30:25;;;;;;;1.70;0.98;;;;;;;;;;10331480;28;20047;-79
2022/11/01 07:35:29;;;;;;;2.20;1.17;;;;;;;;;;10330116;28;20045;-79
2022/11/01 07:40:35;;;;;;;2.80;1.10;;;;;;;;;;10331998;28;20598;-80
2022/11/01 07:45:38;;;;;;;0.80;0.80;;;;;;;;;;10323244;28;20538;-79
2022/11/01 07:50:43;;;;;;;1.48;0.90;;;;;;;;;;10306580;28;20069;-80
2022/11/01 07:55:48;;;;;;;0.82;0.80;;;;;;;;;;10305009;28;20038;-81
2022/11/01 08:00:51;;;;;;;1.83;1.10;;;;;;;;;;10328262;28;20050;-79
2022/11/01 08:05:56;;;;;;;1.42;0.60;;;;;;;;;;10309290;28;20046;-82
2022/11/01 08:11:01;;;;;;;4.30;0.88;;;;;;;;;;10316040;28;20860;-81
2022/11/01 08:16:06;;;;;;;1.23;0.70;;;;;;;;;;10317821;28;20046;-82
2022/11/01 08:21:10;;;;;;;1.80;0.98;;;;;;;;;;10318467;28;20285;-81
2022/11/01 08:26:15;;;;;;;1.50;0.95;;;;;;;;;;10328788;28;20065;-81
2022/11/01 08:31:18;;;;;;;3.03;1.45;;;;;;;;;;10321220;28;20426;-80
2022/11/01 08:36:22;;;;;;;2.88;1.70;;;;;;;;;;10321803;28;20047;-80
2022/11/01 08:41:27;;;;;;;2.38;1.35;;;;;;;;;;10310514;28;20049;-81
2022/11/01 08:46:30;;;;;;;3.10;1.40;;;;;;;;;;10318841;28;20050;-81
2022/11/01 08:51:33;;;;;;;3.65;1.40;;;;;;;;;;10307729;28;20042;-80
2022/11/01 08:56:38;;;;;;;1.80;0.80;;;;;;;;;;10316681;28;20049;-81
2022/11/01 09:01:41;;;;;;;3.72;1.25;;;;;;;;;;10300502;28;20553;-82
2022/11/01 09:06:45;;;;;;;4.95;1.63;;;;;;;;;;10321840;28;20518;-81
2022/11/01 09:11:49;;;;;;;5.22;1.45;;;;;;;;;;10316321;28;20046;-81
2022/11/01 09:16:53;;;;;;;1.63;0.85;;;;;;;;;;10307478;28;20047;-80
2022/11/01 09:21:56;;;;;;;1.15;0.60;;;;;;;;;;10325086;28;20718;-81
2022/11/01 09:27:01;;;;;;;2.03;0.80;;;;;;;;;;10298499;28;20046;-80
2022/11/01 09:32:05;;;;;;;2.75;1.05;;;;;;;;;;10323883;28;20081;-80
2022/11/01 09:37:08;;;;;;;1.17;0.70;;;;;;;;;;10324571;28;20046;-79
2022/11/01 09:42:21;;;;;;;1.23;0.70;;;;;;;;;;10304130;28;20462;-83
2022/11/01 09:47:29;;;;;;;1.60;0.90;;;;;;;;;;10318145;28;20414;-81
2022/11/01 09:52:32;;;;;;;3.03;1.13;;;;;;;;;;10323980;28;20070;-81
2022/11/01 09:57:44;;;;;;;3.95;1.13;;;;;;;;;;10315093;28;20043;-81
2022/11/01 10:03:16;;;;;;;4.00;1.00;;;;;;;;;;10298165;28;20042;-80
2022/11/01 10:08:29;;;;;;;1.35;0.80;;;;;;;;;;10313593;28;20042;-80
2022/11/01 10:13:49;;;;;;;1.95;0.50;;;;;;;;;;10315650;28;20049;-80
2022/11/01 10:19:01;;;;;;;2.67;1.00;;;;;;;;;;10317173;28;20042;-81
2022/11/01 10:24:07;;;;;;;1.10;0.57;;;;;;;;;;10305318;28;20043;-80
2022/11/01 10:29:16;;;;;;;;;;;;;;;;;;10322049;28;20050;-82
2022/11/01 10:34:23;;;;;;;1.23;0.60;;;;;;;;;;10331989;28;19928;-80
2022/11/01 10:39:35;;;;;;;1.95;0.47;;;;;;;;;;10299588;28;20584;-81
2022/11/01 10:44:59;;;;;;;1.15;0.30;;;;;;;;;;10310106;28;20058;-80
2022/11/01 10:50:05;;;;;;;1.40;0.47;;;;;;;;;;10328064;28;20406;-80
2022/11/01 10:55:14;;;;;;;1.38;0.43;;;;;;;;;;10310716;28;20597;-81
2022/11/01 11:00:20;;;;;;;1.80;0.60;;;;;;;;;;10304211;28;20038;-81
2022/11/01 11:05:25;;;;;;;1.00;0.38;;;;;;;;;;10305897;28;20049;-80
2022/11/01 11:10:29;;;;;;;1.50;0.50;;;;;;;;;;10320689;28;20042;-80
2022/11/01 11:15:41;;;;;;;0.77;0.47;;;;;;;;;;10303596;28;20038;-79
2022/11/01 11:20:49;;;;;;;0.47;0.32;;;;;;;;;;10314528;28;20526;-78
2022/11/01 11:25:53;;;;;;;1.42;0.68;;;;;;;;;;10318341;28;20058;-78
2022/11/01 11:31:10;;;;;;;1.95;0.68;;;;;;;;;;10315288;28;20041;-79
2022/11/01 11:36:13;;;;;;;4.10;1.02;;;;;;;;;;10320255;28;20050;-79
2022/11/01 11:41:28;;;;;;;4.05;0.70;;;;;;;;;;10300329;28;20049;-80
2022/11/01 11:46:33;;;;;;;2.78;0.60;;;;;;;;;;10312322;28;20283;-79
2022/11/01 11:51:37;;;;;;;3.67;0.52;;;;;;;;;;10322338;28;20129;-78
2022/11/01 11:56:40;;;;;;;3.05;0.82;;;;;;;;;;10318978;28;20047;-79
2022/11/01 12:01:47;;;;;;;1.73;0.60;;;;;;;;;;10321004;28;20042;-77
2022/11/01 12:06:50;;;;;;;3.95;0.70;;;;;;;;;;10318623;28;20045;-79
2022/11/01 12:11:53;;;;;;;0.45;0.30;;;;;;;;;;10313595;28;20055;-80
2022/11/01 12:16:58;;;;;;;1.55;0.65;;;;;;;;;;10310877;28;20038;-79
2022/11/01 12:22:03;;;;;;;3.50;0.52;;;;;;;;;;10319318;28;20069;-81
2022/11/01 12:27:13;;;;;;;2.05;0.52;;;;;;;;;;10292608;28;20057;-78
2022/11/01 12:32:21;;;;;;;2.13;0.70;;;;;;;;;;10304779;28;20054;-77
2022/11/01 12:37:31;;;;;;;2.88;0.60;;;;;;;;;;10323955;28;20042;-79
2022/11/01 12:42:39;;;;;;;2.72;0.57;;;;;;;;;;10294125;28;20039;-75
2022/11/01 12:47:48;;;;;;;1.92;0.60;;;;;;;;;;10295405;28;20050;-80
2022/11/01 12:52:55;;;;;;;1.50;0.32;;;;;;;;;;10321147;28;20050;-80
2022/11/01 12:57:59;;;;;;;2.33;0.70;;;;;;;;;;10311590;28;20046;-77
2022/11/01 13:03:23;;;;;;;2.05;0.40;;;;;;;;;;10321460;28;20042;-79
2022/11/01 13:08:32;;;;;;;2.45;0.50;;;;;;;;;;10313623;28;20696;-80
2022/11/01 13:13:43;;;;;;;1.80;0.52;;;;;;;;;;10311488;28;20046;-78
2022/11/01 13:18:55;;;;;;;2.28;0.82;;;;;;;;;;10329695;28;20053;-79
2022/11/01 13:24:05;;;;;;;0.85;0.45;;;;;;;;;;10339971;28;20034;-79
2022/11/01 13:29:16;;;;;;;3.75;0.95;;;;;;;;;;10299145;28;20050;-80
2022/11/01 13:34:40;;;;;;;2.33;0.88;;;;;;;;;;10315290;28;20117;-79
2022/11/01 13:39:55;;;;;;;2.10;0.50;;;;;;;;;;10323710;28;20046;-80
2022/11/01 13:45:18;;;;;;;1.80;0.55;;;;;;;;;;10326474;28;20042;-81
2022/11/01 13:50:57;;;;;;;3.55;0.60;;;;;;;;;;10305564;28;20109;-81
2022/11/01 13:56:06;;;;;;;2.60;0.50;;;;;;;;;;10317148;28;20053;-79
2022/11/01 14:01:28;;;;;;;1.45;0.63;;;;;;;;;;10322159;28;20049;-81
2022/11/01 14:06:37;;;;;;;1.15;0.60;;;;;;;;;;10313625;28;20663;-82
2022/11/01 14:11:47;;;;;;;3.58;1.00;;;;;;;;;;10322876;28;20046;-80
2022/11/01 14:16:51;;;;;;;0.73;0.45;;;;;;;;;;10303401;28;20054;-78
2022/11/01 14:21:54;;;;;;;1.55;0.65;;;;;;;;;;10317828;28;20042;-81
2022/11/01 14:27:21;;;;;;;1.67;0.63;;;;;;;;;;10315255;28;20631;-81
2022/11/01 14:32:31;;;;;;;2.08;0.43;;;;;;;;;;10322835;28;20048;-80
2022/11/01 14:37:39;;;;;;;2.30;0.55;;;;;;;;;;10313953;28;20451;-80
2022/11/01 14:42:46;;;;;;;4.30;0.93;;;;;;;;;;10315594;28;20061;-79
2022/11/01 14:47:50;;;;;;;4.80;1.10;;;;;;;;;;10322092;28;20077;-80
2022/11/01 14:52:59;;;;;;;3.72;0.80;;;;;;;;;;10301597;28;20660;-80
2022/11/01 14:58:18;;;;;;;2.30;0.70;;;;;;;;;;10280561;28;20514;-79
2022/11/01 15:03:21;;;;;;;0.70;0.30;;;;;;;;;;10313817;28;20034;-81
2022/11/01 15:08:30;;;;;;;1.98;0.50;;;;;;;;;;10307535;28;20034;-81
2022/11/01 15:13:37;;;;;;;0.82;0.30;;;;;;;;;;10315592;28;20244;-81
2022/11/01 15:18:46;;;;;;;2.58;0.80;;;;;;;;;;10315654;28;20045;-79
2022/11/01 15:23:51;;;;;;;2.55;0.60;;;;;;;;;;10309880;28;20715;-79
2022/11/01 15:28:57;;;;;;;2.85;0.68;;;;;;;;;;10293852;28;20082;-81
2022/11/01 15:34:02;;;;;;;1.58;0.70;;;;;;;;;;10314821;28;20495;-80
2022/11/01 15:39:18;;;;;;;1.70;0.70;;;;;;;;;;10294324;28;20097;-80
2022/11/01 15:44:24;;;;;;;1.67;0.47;;;;;;;;;;10288113;28;20041;-80
2022/11/01 15:49:29;;;;;;;;;;;;;;;;;;10303619;28;20045;-81
2022/11/01 15:54:39;;;;;;;1.30;0.50;;;;;;;;;;10305840;28;19928;-80
2022/11/01 15:59:52;;;;;;;2.88;0.80;;;;;;;;;;10312985;28;20046;-80
2022/11/01 16:04:56;;;;;;;2.25;0.70;;;;;;;;;;10293346;28;20077;-80
2022/11/01 16:10:02;;;;;;;1.00;0.35;;;;;;;;;;10318010;28;20046;-81
2022/11/01 16:15:18;;;;;;;1.63;0.53;;;;;;;;;;10303805;28;20053;-81
2022/11/01 16:20:34;;;;;;;2.72;0.60;;;;;;;;;;10297452;28;20042;-80
2022/11/01 16:25:38;;;;;;;1.85;0.45;;;;;;;;;;10315445;28;20054;-79
2022/11/01 16:30:45;;;;;;;2.60;0.40;;;;;;;;;;10310385;28;20042;-79
2022/11/01 16:35:50;;;;;;;1.80;0.60;;;;;;;;;;10322482;28;20079;-79
2022/11/01 16:40:56;;;;;;;1.85;0.55;;;;;;;;;;10313203;28;20078;-81
2022/11/01 16:46:03;;;;;;;1.63;0.60;;;;;;;;;;10332125;28;20046;-80
2022/11/01 16:51:06;;;;;;;2.80;1.13;;;;;;;;;;10332347;28;20046;-79
2022/11/01 16:56:15;;;;;;;1.33;0.82;;;;;;;;;;10332988;28;20042;-79
2022/11/01 17:01:38;;;;;;;3.90;1.98;;;;;;;;;;10312651;28;20068;-80
2022/11/01 17:06:41;;;;;;;3.08;1.70;;;;;;;;;;10288711;28;20553;-81
2022/11/01 17:11:46;;;;;;;3.40;1.50;;;;;;;;;;10329438;28;20427;-80
2022/11/01 17:16:55;;;;;;;3.40;1.95;;;;;;;;;;10338891;28;20070;-81
2022/11/01 17:22:00;;;;;;;2.90;1.63;;;;;;;;;;10330456;28;20102;-80
2022/11/01 17:27:05;;;;;;;4.27;2.27;;;;;;;;;;10322080;28;20050;-80
2022/11/01 17:32:11;;;;;;;3.57;1.93;;;;;;;;;;10333019;28;20043;-81
2022/11/01 17:37:16;;;;;;;2.90;1.10;;;;;;;;;;10329045;28;20046;-81
2022/11/01 17:42:19;;;;;;;2.15;1.00;;;;;;;;;;10326497;28;20080;-80
2022/11/01 17:47:24;;;;;;;3.80;1.50;;;;;;;;;;10323612;28;20046;-81
2022/11/01 17:52:27;;;;;;;2.17;0.82;;;;;;;;;;10325073;28;20060;-80
2022/11/01 17:57:30;;;;;;;1.90;1.08;;;;;;;;;;10310086;28;20046;-79
2022/11/01 18:02:35;;;;;;;7.20;1.60;;;;;;;;;;10326864;28;20414;-79
2022/11/01 18:07:40;;;;;;;2.03;0.63;;;;;;;;;;10309155;28;20121;-79
2022/11/01 18:13:06;;;;;;;2.47;0.90;;;;;;;;;;10324097;28;20133;-79
2022/11/01 18:18:43;;;;;;;3.75;0.90;;;;;;;;;;10319766;28;20557;-78
2022/11/01 18:23:47;;;;;;;2.40;1.20;;;;;;;;;;10310314;28;20047;-79
2022/11/01 18:28:53;;;;;;;5.65;1.02;;;;;;;;;;10308612;28;20050;-80
2022/11/01 18:34:03;;;;;;;4.88;1.27;;;;;;;;;;10320594;28;20045;-78
2022/11/01 18:39:15;;;;;;;4.07;1.80;;;;;;;;;;10291264;28;20064;-79
2022/11/01 18:44:18;;;;;;;5.82;2.00;;;;;;;;;;10310898;28;20071;-79
2022/11/01 18:49:27;;;;;;;6.90;2.67;;;;;;;;;;10317793;28;20704;-79
2022/11/01 18:54:31;;;;;;;7.38;2.83;;;;;;;;;;10294518;28;20053;-79
2022/11/01 18:59:40;;;;;;;5.53;2.50;;;;;;;;;;10317443;28;20557;-78
2022/11/01 19:04:46;;;;;;;4.88;2.28;;;;;;;;;;10318172;28;20047;-80
2022/11/01 19:09:53;;;;;;;4.07;2.10;;;;;;;;;;10307938;28;20046;-80
2022/11/01 19:14:59;;;;;;;4.15;2.15;;;;;;;;;;10322570;28;20049;-80
2022/11/01 19:20:18;;;;;;;2.92;1.60;;;;;;;;;;10314259;28;20134;-80
2022/11/01 19:25:22;;;;;;;3.50;1.70;;;;;;;;;;10303724;28;20446;-79
2022/11/01 19:30:28;;;;;;;5.00;1.50;;;;;;;;;;10299909;28;20324;-79
2022/11/01 19:35:33;;;;;;;4.00;1.60;;;;;;;;;;10317311;28;20057;-79
2022/11/01 19:40:36;;;;;;;6.00;1.60;;;;;;;;;;10320387;28;20054;-80
2022/11/01 19:45:45;;;;;;;2.78;1.27;;;;;;;;;;10297787;28;20450;-80
2022/11/01 19:50:50;;;;;;;3.95;1.25;;;;;;;;;;10315889;28;20114;-78
2022/11/01 19:55:59;;;;;;;3.13;1.05;;;;;;;;;;10317268;28;20046;-78
2022/11/01 20:01:22;;;;;;;3.47;1.40;;;;;;;;;;10310919;28;20036;-78
2022/11/01 20:06:36;;;;;;;3.42;1.00;;;;;;;;;;10318463;28;20072;-79
2022/11/01 20:11:39;;;;;;;4.70;1.00;;;;;;;;;;10319719;28;20042;-81
2022/11/01 20:16:43;;;;;;;4.78;1.40;;;;;;;;;;10301390;28;20066;-80
2022/11/01 20:21:47;;;;;;;2.47;1.00;;;;;;;;;;10290107;28;20438;-80
2022/11/01 20:26:51;;;;;;;4.40;1.52;;;;;;;;;;10324349;28;20057;-78
2022/11/01 20:31:54;;;;;;;3.33;1.38;;;;;;;;;;10312914;28;20172;-78
2022/11/01 20:36:59;;;;;;;3.95;1.30;;;;;;;;;;10318686;28;20541;-79
2022/11/01 20:42:23;;;;;;;4.97;1.40;;;;;;;;;;10322429;28;20097;-79
2022/11/01 20:47:26;;;;;;;4.55;1.02;;;;;;;;;;10334917;28;20749;-79
2022/11/01 20:52:31;;;;;;;3.08;1.20;;;;;;;;;;10295290;28;20667;-80
2022/11/01 20:57:41;;;;;;;4.07;1.00;;;;;;;;;;10289685;28;20042;-79
2022/11/01 21:02:44;;;;;;;3.85;1.45;;;;;;;;;;10303128;28;20042;-79
2022/11/01 21:07:52;;;;;;;3.53;0.95;;;;;;;;;;10304618;28;20049;-79
2022/11/01 21:12:56;;;;;;;3.05;0.90;;;;;;;;;;10296293;28;20058;-79
2022/11/01 21:18:30;;;;;;;4.22;1.38;;;;;;;;;;10305013;28;20049;-79
2022/11/01 21:23:35;;;;;;;3.67;1.00;;;;;;;;;;10309810;28;20050;-79
2022/11/01 21:28:43;;;;;;;1.90;0.88;;;;;;;;;;10301115;28;20050;-79
2022/11/01 21:33:51;;;;;;;1.77;0.73;;;;;;;;;;10290187;28;20053;-79
2022/11/01 21:38:58;;;;;;;2.45;0.70;;;;;;;;;;10301117;28;20050;-79
2022/11/01 21:44:19;;;;;;;1.27;0.50;;;;;;;;;;10292739;28;20453;-81
2022/11/01 21:49:28;;;;;;;1.75;0.65;;;;;;;;;;10319898;28;20430;-77
2022/11/01 21:54:34;;;;;;;2.90;0.73;;;;;;;;;;10302485;28;20687;-78
2022/11/01 21:59:38;;;;;;;;;;;;;;;;;;10298346;28;20102;-78
2022/11/01 22:04:42;;;;;;;1.58;0.43;;;;;;;;;;10311606;28;19922;-78
2022/11/01 22:09:47;;;;;;;3.67;0.70;;;;;;;;;;10286463;28;20145;-79
2022/11/01 22:14:50;;;;;;;1.58;0.65;;;;;;;;;;10304942;28;20392;-79
2022/11/01 22:19:54;;;;;;;4.43;0.90;;;;;;;;;;10286723;28;20046;-79
2022/11/01 22:24:58;;;;;;;2.00;0.55;;;;;;;;;;10325506;28;20058;-78
2022/11/01 22:30:02;;;;;;;2.15;0.50;;;;;;;;;;10310383;28;20039;-77
2022/11/01 22:35:08;;;;;;;1.63;0.55;;;;;;;;;;10304430;28;20042;-77
2022/11/01 22:40:15;;;;;;;2.90;0.60;;;;;;;;;;10312193;28;20042;-79
2022/11/01 22:45:18;;;;;;;1.63;0.68;;;;;;;;;;10338313;23;20258;-83
2022/11/01 22:50:28;;;;;;;1.83;0.50;;;;;;;;;;10343699;28;20061;-83
2022/11/01 22:55:34;;;;;;;1.27;0.57;;;;;;;;;;10323180;28;20133;-82
2022/11/01 23:00:37;;;;;;;3.50;1.10;;;;;;;;;;10290156;28;20072;-82
2022/11/01 23:05:42;;;;;;;2.20;0.43;;;;;;;;;;10310660;28;20825;-82
2022/11/01 23:10:50;;;;;;;2.65;0.80;;;;;;;;;;10318473;28;20049;-81
2022/11/01 23:15:55;;;;;;;2.05;0.65;;;;;;;;;;10294738;28;20045;-83
2022/11/01 23:21:01;;;;;;;2.13;0.60;;;;;;;;;;10306960;28;20052;-82
2022/11/01 23:26:06;;;;;;;1.15;0.60;;;;;;;;;;10300288;28;20670;-82
2022/11/01 23:31:09;;;;;;;2.20;0.55;;;;;;;;;;10289435;28;20134;-83
2022/11/01 23:36:17;;;;;;;3.13;0.68;;;;;;;;;;10295686;28;20043;-82
2022/11/01 23:41:25;;;;;;;2.58;0.80;;;;;;;;;;10312475;28;20056;-82
2022/11/01 23:46:28;;;;;;;2.25;0.60;;;;;;;;;;10313093;28;20045;-83
2022/11/01 23:51:32;;;;;;;2.17;0.47;;;;;;;;;;10316254;28;20133;-83
2022/11/01 23:56:37;;;;;;;3.47;0.70;;;;;;;;;;10317099;28;20647;-83
